KRMN

Stafford Regional Airport

Stafford, Virginia, USA
METAR KRMN 231055Z AUTO 00000KT 1 1/2SM BR VV007 19/19 A3000 RMK AO2 T01900190
Observed Flight Rules
May-23 @ 10:55 UTC (8 minutes ago) Instrument Flight Rules
Visibility Clouds Conditions
1 1/2 miles
  • Vertical visibility at 700' AGL
  • Mist
Temperatures Readings
Current 19°C / 66°F
Dewpoint 19°C / 66°F
Humidity 100%
Altimeter 30" Hg
Pressure 1016 hPa
Elevation 65
METAR KRMN 231055Z AUTO 00000KT 1 1/2SM BR VV007 19/19 A3000 RMK AO2 T01900190
Observed Flight Rules
May-23 @ 10:55 UTC
(8 minutes ago)
LIFR
Clouds
  • Vertical visibility at 700' AGL
Conditions
  • Mist
Temperature Dewpoint
19°C / 66°F 19°C / 66°F
Humidity Altimeter Pressure
100% 30" Hg 1016 hPa